Tiempo atmosférico en la estación meteorológica de Melilla, Melilla (47 m.)



Fecha
DESCASC
Temp. máxima en grados centígrados (hora)
DESCASC
Temp. mínima en grados centígrados (hora)
DESCASC
Temp. media en grados centígrados
DESCASC
Racha de viento máxima en m/sg (hora)
DESCASC
Velocidad máxima media en intervalos de 10 minutos(hora)
DESCASC
Precipitaciones diarias en mm
DESCASC
Precipitaciones de 00:00 a 06:00 en mm
DESCASC
Precipitaciones de 06:00 a 12:00 en mm
DESCASC
Precipitaciones de 12:00 a 18:00 en mm
DESCASC
Precipitaciones de 18:00 a 24:00 en mm
DESCASC
23-06-2019 25.1 (14:40) 20.6 (07:00) 22.9 8.33 (14:50) 5.28 (18:20) 0 0 0 0 0
22-06-2019 24.3 (15:00) 18.2 (06:30) 21.3 8.33 (14:50) 5.56 (15:00) 0 0 0 0 0
21-06-2019 27.2 (14:40) 19.5 (06:30) 23.4 14.17 (12:40) 7.22 (12:30) 0 0 0 0 0
20-06-2019 25.7 (14:00) 19.5 (00:00) 22.6 15 (19:30) 8.33 (20:30) 0 0 0 0 0
19-06-2019 26 (17:40) 19.8 (00:00) 22.9 11.11 (14:50) 6.11 (19:40) 0 0 0 0 0
18-06-2019 25 (15:40) 19.1 (00:00) 22.1 10 (17:30) 4.44 (17:50) 0 0 0 0 0
17-06-2019 24.1 (14:30) 17.6 (00:00) 20.9 6.94 (16:20) 4.72 (16:20) 0 0 0 0 0
16-06-2019 23.2 (14:50) 16.7 (00:00) 20 6.94 (15:20) 4.72 (14:50) 0 0 0 0 0
15-06-2019 26.4 (15:40) 16.8 (00:00) 21.6 11.11 (00:20) 6.39 (01:50) 0 0 0 0 0
14-06-2019 23 (16:10) 18.4 (00:00) 20.7 11.39 (19:00) 5.83 (21:20) 1.4 1.4 0 0 0
13-06-2019 23.6 (14:40) 19.8 (00:00) 21.7 8.61 (15:50) 6.39 (14:50) 9.2 0 0 0 9.2
12-06-2019 23.3 (14:10) 18.2 (00:00) 20.8 10.28 (00:40) 6.39 (16:10) 0 0 0 0 0
11-06-2019 26.7 (14:40) 18 (00:00) 22.4 15 (17:50) 8.33 (21:10) 0 0 0 0 0
10-06-2019 24.9 (17:30) 19.4 (00:00) 22.1 15 (16:40) 7.5 (13:50) 0 0 0 0 0
09-06-2019 24.7 (16:10) 18.3 (00:00) 21.5 12.5 (20:40) 6.67 (23:00) 0 0 0 0 0
08-06-2019 23.9 (13:10) 16.9 (00:00) 20.4 8.33 (15:20) 5.83 (14:20) 0 0 0 0 0
07-06-2019 25.2 (15:50) 17.7 (00:00) 21.5 11.67 (11:00) 6.94 (09:50) 0 0 0 0 0
06-06-2019 25.9 (13:30) 18.6 (00:00) 22.3 12.5 (00:40) 7.78 (00:10) 0 0 0 0 0
05-06-2019 23.8 (00:00) 19.9 (00:00) 21.8 15 (04:40) 8.61 (23:40) 0 0 0 0 0
04-06-2019 30.4 (16:00) 16.7 (00:00) 23.6 12.22 (23:59) 7.78 (23:59) 0 0 0 0 0
03-06-2019 22.6 (16:40) 17.7 (00:00) 20.2 6.67 (15:20) 4.44 (10:00) 0 0 0 0 0
02-06-2019 22.9 (16:20) 17.9 (00:00) 20.4 7.22 (13:10) 4.44 (12:30) 0 0 0 0 0
01-06-2019 22.8 (15:10) 18.3 (00:00) 20.5 8.61 (18:30) 6.39 (14:00) 0 0 0 0 0
31-05-2019 23.1 (14:20) 18.7 (00:00) 20.9 11.11 (19:50) 7.78 (13:10) 0 0 0 0 0
30-05-2019 22.5 (12:50) 18.6 (00:00) 20.6 10.83 (15:50) 7.5 (15:50) 0 0 0 0 0
29-05-2019 23.7 (14:40) 19.6 (00:00) 21.7 9.44 (14:20) 6.94 (14:30) 0 0 0 0 0
28-05-2019 31.7 (11:20) 18.9 (00:00) 25.3 8.33 (13:50) 6.11 (12:10) 0 0 0 0 0
27-05-2019 25.3 (15:00) 16.4 (00:00) 20.8 6.39 (15:30) 5 (15:30) 0 0 0 0 0
26-05-2019 23.8 (11:30) 16.4 (00:00) 20.1 7.22 (15:40) 5 (13:20) 0 0 0 0 0
25-05-2019 22.8 (14:20) 18 (00:00) 20.4 8.89 (11:30) 6.11 (10:40) 0 0 0 0 0

Gráficas

Temp. máximas Temp. mínimas Temp. medias Precipitaciones Rachas de viento máximas Velocidades máximas media en intervalos de 10 minutos

Datos horarios

Fecha y hora oficial Temperatura (ºC) Velocidad del viento (km/h) Dirección del viento Racha (km/h) Dirección de racha Precipitación (mm) Presión (hPa) Tendencia (hPa) Humedad (%)
2019-06-23 23:00:00 21.3 8 Noroeste 12 Norte 0 1007.7 1.9 85
2019-06-23 22:00:00 21.8 8 Norte 14 Norte 0 1007.1 1.5 84
2019-06-23 21:00:00 22.2 11 Norte 17 Nordeste 0 1006.3 0.6 81
2019-06-23 20:00:00 22.9 13 Nordeste 21 Norte 0 1005.8 -0.2 78
2019-06-23 19:00:00 23.6 17 Norte 25 Norte 0 1005.6 -0.8 75
2019-06-23 18:00:00 24.5 18 Norte 23 Norte 0 1005.7 -1.2 67
2019-06-23 17:00:00 24.4 14 Nordeste 22 Este 0 1006 -1.3 65
2019-06-23 16:00:00 24.9 13 Nordeste 22 Nordeste 0 1006.4 -1.4 64
2019-06-23 15:00:00 24.2 17 Nordeste 30 Nordeste 0 1006.9 -1 62
2019-06-23 14:00:00 24.2 15 Nordeste 23 Nordeste 0 1007.3 -0.6 62
2019-06-23 13:00:00 23.7 13 Norte 21 Nordeste 0 1007.8 -0.1 64
2019-06-23 12:00:00 23.8 9 Este 17 Nordeste 0 1007.9 0.2 61
2019-06-23 11:00:00 22.8 8 Norte 19 Norte 0 1007.9 0.6 70
2019-06-23 10:00:00 23.9 7 Este 13 Este 0 1007.9 0.9 61
2019-06-23 09:00:00 22.4 8 Nordeste 12 Nordeste 0 1007.7 0.7 70
2019-06-23 08:00:00 21.7 6 Este 12 Este 0 1007.3 0.1 72
2019-06-23 07:00:00 20.7 8 Este 12 Este 0 1007 -0.4 77
2019-06-23 06:00:00 21.1 9 Nordeste 12 Este 0 1007 -0.7 77
2019-06-23 05:00:00 21.1 9 Nordeste 13 Nordeste 0 1007.2 -0.7 84
2019-06-23 04:00:00 21.1 5 Nordeste 9 Este 0 1007.4 -0.9 84
2019-06-23 03:00:00 21.1 2 Oeste 5 Nordeste 0 1007.7 -0.6 84
2019-06-23 02:00:00 21.1 4 Este 9 Nordeste 0 1007.9 0.1 83
2019-06-23 01:00:00 21.2 6 Este 9 Este 0 1008.3 1 85
2019-06-23 00:00:00 21.1 6 Este 9 Este 0 1008.3 1 84
2019-06-22 23:00:00 21.3 6 Este 14 Este 0 1007.8 0.6 84
2019-06-22 22:00:00 21.6 10 Este 15 Este 0 1007.3 0.2 83
2019-06-22 21:00:00 22.2 11 Este 18 Nordeste 0 1007.3 -0.4 76
2019-06-22 20:00:00 22.5 10 Este 17 Este 0 1007.2 -0.7 77
2019-06-22 19:00:00 23.2 9 Este 23 Este 0 1007.1 -1.2 73
2019-06-22 18:00:00 23.6 10 Este 21 Nordeste 0 1007.7 -0.9 69
2019-06-22 17:00:00 23.6 13 Este 22 Este 0 1007.9 -0.9 70
2019-06-22 16:00:00 24 14 Este 26 Nordeste 0 1008.3 -0.9 68
2019-06-22 15:00:00 24 20 Nordeste 30 Este 0 1008.6 -0.7 65
2019-06-22 14:00:00 23.6 15 Nordeste 22 Este 0 1008.8 -0.7 67
2019-06-22 13:00:00 23.7 13 Este 21 Este 0 1009.2 -0.3 68
2019-06-22 12:00:00 23.7 12 Este 18 Este 0 1009.3 -0.1 62
2019-06-22 11:00:00 22.6 11 Este 20 Este 0 1009.5 0.5 72
2019-06-22 10:00:00 22.6 13 Este 20 Sudeste 0 1009.5 0.9 74
2019-06-22 09:00:00 21.6 10 Este 15 Nordeste 0 1009.4 1.3 77
2019-06-22 08:00:00 20.2 6 Este 11 Este 0 1009 0.9 76
2019-06-22 07:00:00 18.4 2 Oeste 6 Noroeste 0 1008.6 0.2 69
2019-06-22 06:00:00 18.6 4 Oeste 7 Noroeste 0 1008.1 -0.4 65
2019-06-22 05:00:00 19.2 2 Oeste 5 Noroeste 0 1008.1 -0.7 68
2019-06-22 04:00:00 19.5 3 Noroeste 9 Oeste 0 1008.4 -0.6 65
2019-06-22 03:00:00 19.7 7 Sudoeste 9 Sudoeste 0 1008.5 -0.3 61
2019-06-22 02:00:00 20.3 5 Sudoeste 7 Sudoeste 0 1008.8 0.3 61
2019-06-22 01:00:00 20.7 2 Nordeste 9 Sudeste 0 1009 0.9 69
2019-06-22 00:00:00 21.2 2 Sur 9 Sudeste 0 1008.8 1.2 69
2019-06-21 23:00:00 22 4 Sur 14 Oeste 0 1008.5 1.3 67
2019-06-21 22:00:00 22.9 4 Oeste 18 Noroeste 0 1008.1 1.2 47
2019-06-21 21:00:00 24 14 Noroeste 19 Norte 0 1007.6 0.4 44
2019-06-21 20:00:00 25.3 8 Noroeste 24 Noroeste 0 1007.2 -0.3 40
2019-06-21 19:00:00 26.5 9 Oeste 25 Noroeste 0 1006.9 -0.7 35
2019-06-21 18:00:00 26.5 13 Oeste 28 Noroeste 0 1007.2 -0.7 39
2019-06-21 17:00:00 26.7 13 Oeste 32 Oeste 0 1007.5 -1 40
2019-06-21 16:00:00 27 14 Oeste 39 Oeste 0 1007.6 -1 38
2019-06-21 15:00:00 27.1 14 Oeste 41 Oeste 0 1007.9 -0.8 39
2019-06-21 14:00:00 26.9 13 Oeste 48 Oeste 0 1008.5 -0.5 38
2019-06-21 13:00:00 26.9 19 Oeste 51 Oeste 0 1008.6 -0.5 37
2019-06-21 12:00:00 26.4 17 Oeste 46 Oeste 0 1008.7 -0.3 39
2019-06-21 11:00:00 26.2 17 Oeste 44 Oeste 0 1009 0.5 39
2019-06-21 10:00:00 24.9 21 Oeste 37 Oeste 0 1009.1 1.1 42
2019-06-21 09:00:00 23.6 22 Sudoeste 34 Sudoeste 0 1009 1.1 46
2019-06-21 08:00:00 22.4 17 Sudoeste 30 Sudoeste 0 1008.5 0.5 49
2019-06-21 07:00:00 21.1 15 Sudoeste 28 Sudoeste 0 1008 0.1 54
2019-06-21 06:00:00 19.7 11 Oeste 32 Oeste 0 1007.9 -0.3 66
2019-06-21 05:00:00 20.2 23 Oeste 41 Oeste 0 1008 -0.5 63
2019-06-21 04:00:00 20.3 23 Oeste 39 Sudoeste 0 1007.9 -0.4 63
2019-06-21 03:00:00 20.5 20 Oeste 34 Oeste 0 1008.2 0 64
2019-06-21 02:00:00 21 17 Oeste 32 Sudoeste 0 1008.5 1 62
2019-06-21 01:00:00 21.6 17 Oeste 35 Oeste 0 1008.3 1.9 55
2019-06-21 00:00:00 21.8 18 Sudoeste 38 Sudoeste 0 1008.2 1.8 54
2019-06-20 23:00:00 21.7 23 Oeste 46 Oeste 0 1007.5 1.3 57
2019-06-20 22:00:00 21.9 28 Oeste 51 Oeste 0 1006.4 0.3 58
2019-06-20 21:00:00 22.6 29 Oeste 52 Oeste 0 1006.4 -0.4 57
2019-06-20 20:00:00 23.6 28 Oeste 54 Oeste 0 1006.2 -0.9 52
2019-06-20 19:00:00 25.1 21 Oeste 44 Oeste 0 1006.1 -1.3 47
2019-06-20 18:00:00 25.4 14 Oeste 45 Oeste 0 1006.8 -1.1 47
2019-06-20 17:00:00 25.2 15 Oeste 42 Oeste 0 1007.1 -1.4 48
2019-06-20 16:00:00 25.3 16 Oeste 47 Oeste 0 1007.4 -1.5 47
2019-06-20 15:00:00 25.4 17 Oeste 45 Oeste 0 1007.9 -1 47
2019-06-20 14:00:00 25.1 18 Oeste 46 Oeste 0 1008.5 -0.3 49
2019-06-20 13:00:00 24.9 18 Oeste 42 Oeste 0 1008.9 0.3 50
2019-06-20 12:00:00 24.1 22 Oeste 47 Oeste 0 1008.9 0.6 54
2019-06-20 11:00:00 23.5 23 Oeste 48 Oeste 0 1008.8 0.6 56
2019-06-20 10:00:00 22.8 23 Oeste 48 Oeste 0 1008.6 0.5 57
2019-06-20 09:00:00 21.6 26 Oeste 43 Oeste 0 1008.3 0.6 64
2019-06-20 08:00:00 20.3 26 Oeste 39 Sudoeste 0 1008.2 0.6 71
2019-06-20 07:00:00 19.5 24 Oeste 42 Oeste 0 1008.1 0.7 78
2019-06-20 06:00:00 19.8 23 Oeste 39 Oeste 0 1007.7 -0.1 76
2019-06-20 05:00:00 20.2 18 Sudoeste 40 Oeste 0 1007.6 -0.5 73
2019-06-20 04:00:00 20.8 24 Oeste 44 Oeste 0 1007.4 -0.9 69
2019-06-20 03:00:00 21.6 23 Oeste 39 Oeste 0 1007.8 -0.6 63
2019-06-20 02:00:00 22.4 19 Oeste 36 Sudoeste 0 1008.1 0.2 55
2019-06-20 01:00:00 23.1 17 Oeste 33 Oeste 0 1008.3 1 50
2019-06-20 00:00:00 23.8 18 Oeste 31 Oeste 0 1008.4 1.2 44
2019-06-19 23:00:00 24.1 15 Sudoeste 27 Sudoeste 0 1007.9 0.9 40
2019-06-19 22:00:00 24.4 14 Sudoeste 28 Sudoeste 0 1007.3 0.2 42
2019-06-19 21:00:00 24.8 17 Oeste 33 Oeste 0 1007.2 -0.4 45
2019-06-19 20:00:00 25.1 18 Oeste 40 Oeste 0 1007 -1.1 45
2019-06-19 19:00:00 25.9 19 Oeste 35 Oeste 0 1007.1 -1.6 47
2019-06-19 18:00:00 25.7 12 Oeste 38 Oeste 0 1007.6 -1.6 49
2019-06-19 17:00:00 25.2 13 Oeste 38 Oeste 0 1008.1 -1.5 51
2019-06-19 16:00:00 25.1 15 Oeste 39 Oeste 0 1008.7 -1.3 52
2019-06-19 15:00:00 25.4 19 Oeste 40 Oeste 0 1009.2 -0.9 53
2019-06-19 14:00:00 24.7 10 Oeste 39 Oeste 0 1009.6 -0.3 53
2019-06-19 13:00:00 24.7 12 Oeste 30 Noroeste 0 1010 -0.1 58
2019-06-19 12:00:00 24.4 11 Oeste 25 Oeste 0 1010.1 0.1 55
2019-06-19 11:00:00 24 10 Oeste 24 Oeste 0 1009.9 0.3 55
2019-06-19 10:00:00 24 6 Oeste 27 Oeste 0 1010.1 0.7 56
2019-06-19 09:00:00 21.9 16 Oeste 34 Oeste 0 1010 0.9 64
2019-06-19 08:00:00 20.6 17 Oeste 33 Sudoeste 0 1009.6 0.6 70
2019-06-19 07:00:00 19.9 17 Oeste 39 Oeste 0 1009.4 0.6 74
2019-06-19 06:00:00 20.3 20 Oeste 32 Oeste 0 1009.1 -0.1 70
2019-06-19 05:00:00 21.1 20 Sudoeste 35 Sudoeste 0 1009 -0.4 61
2019-06-19 04:00:00 21.5 17 Oeste 31 Sudoeste 0 1008.8 -0.9 55
2019-06-19 03:00:00 22.1 17 Oeste 30 Oeste 0 1009.2 -0.8 51
2019-06-19 02:00:00 22.5 19 Oeste 31 Sudoeste 0 1009.4 -0.3 52
2019-06-19 01:00:00 22.7 13 Oeste 25 Oeste 0 1009.7 0.6 52
2019-06-19 00:00:00 22.1 8 Oeste 15 Sudoeste 0 1010 0.9 48
2019-06-18 23:00:00 22.2 6 Sudeste 12 Oeste 0 1009.7 0.8 71
2019-06-18 22:00:00 23.4 8 Oeste 21 Oeste 0 1009.1 0.4 30
2019-06-18 21:00:00 23.5 11 Oeste 23 Oeste 0 1009.1 0.2 34
2019-06-18 20:00:00 23.4 10 Oeste 30 Oeste 0 1008.9 0 42
2019-06-18 19:00:00 23.4 10 Oeste 33 Oeste 0 1008.7 -0.7 63
2019-06-18 18:00:00 24 15 Oeste 36 Oeste 0 1008.9 -0.8 62
2019-06-18 17:00:00 23.9 10 Oeste 32 Noroeste 0 1008.9 -1.2 64
2019-06-18 16:00:00 23.6 14 Noroeste 31 Oeste 0 1009.4 -0.9 67
2019-06-18 15:00:00 24.3 13 Noroeste 32 Noroeste 0 1009.7 -0.6 62
2019-06-18 14:00:00 24.5 9 Noroeste 28 Norte 0 1010.1 0 62
2019-06-18 13:00:00 24.2 13 Noroeste 23 Noroeste 0 1010.3 0.4 63
2019-06-18 12:00:00 23.3 10 Noroeste 22 Norte 0 1010.3 0.5 65
2019-06-18 11:00:00 22.7 9 Noroeste 20 Noroeste 0 1010.1 0.7 69
2019-06-18 10:00:00 22.1 9 Oeste 22 Oeste 0 1009.9 0.9 74
2019-06-18 09:00:00 20 11 Oeste 19 Oeste 0 1009.8 1.2 82
2019-06-18 08:00:00 19.5 7 Oeste 16 Oeste 0 1009.4 1.1 84
2019-06-18 07:00:00 19.4 3 Noroeste 5 Sudeste 0 1009 0.5 86
2019-06-18 06:00:00 19.2 3 Sudoeste 5 Sudoeste 0 1008.6 -0.4 86
2019-06-18 05:00:00 19.5 3 Sudoeste 10 Sudeste 0 1008.3 -1.1 84
2019-06-18 04:00:00 19.3 2 Sudoeste 6 Sudeste 0 1008.5 -1.4 85
2019-06-18 03:00:00 19.7 4 Sudeste 9 Este 0 1009 -1.1 85
2019-06-18 02:00:00 19.8 6 Sudeste 9 Sudeste 0 1009.4 -0.4 85
2019-06-18 01:00:00 19.9 4 Este 9 Este 0 1009.9 0.6 84
2019-06-18 00:00:00 20.2 5 Norte 8 Norte 0 1010.1 1 82
2019-06-17 23:00:00 20.5 5 Este 9 Este 0 1009.8 0.7 82
2019-06-17 22:00:00 20.8 4 Este 12 Este 0 1009.3 0.3 82
2019-06-17 21:00:00 21.1 8 Este 13 Este 0 1009.1 -0.2 79
2019-06-17 20:00:00 21.8 8 Nordeste 14 Este 0 1009.1 -0.6 76
2019-06-17 19:00:00 22.7 9 Este 19 Este 0 1009 -1.1 71
2019-06-17 18:00:00 23.1 12 Nordeste 20 Nordeste 0 1009.3 -1.2 70
2019-06-17 17:00:00 23.4 13 Nordeste 25 Nordeste 0 1009.7 -1.3 66
2019-06-17 16:00:00 23.2 16 Nordeste 24 Nordeste 0 1010.1 -1.3 69
2019-06-17 15:00:00 23.8 13 Nordeste 20 Este 0 1010.5 -1.1 67
2019-06-17 14:00:00 23 12 Nordeste 23 Este 0 1011 -0.6 69
2019-06-17 13:00:00 23.5 14 Este 22 Este 0 1011.4 -0.2 68
2019-06-17 12:00:00 22.8 12 Este 18 Nordeste 0 1011.6 0 69
2019-06-17 11:00:00 21.8 13 Nordeste 19 Este 0 1011.6 0 74
2019-06-17 10:00:00 21.8 6 Este 14 Este 0 1011.6 0.3 75
2019-06-17 09:00:00 20 4 Norte 8 Noroeste 0 1011.6 0.3 79
2019-06-17 08:00:00 18.6 4 Noroeste 6 Noroeste 0 1011.6 0.3 86
2019-06-17 07:00:00 17.9 2 Noroeste 5 Noroeste 0 1011.3 -0.3 87
2019-06-17 06:00:00 18.3 3 Noroeste 5 Norte 0 1011.3 -0.7 87
2019-06-17 05:00:00 18.8 2 Noroeste 6 Norte 0 1011.3 -1 86
2019-06-17 04:00:00 18.9 4 Norte 6 Norte 0 1011.6 -0.9 85
2019-06-17 03:00:00 19.4 2 Norte 7 Noroeste 0 1012 -0.8 83
2019-06-17 02:00:00 19.8 4 Noroeste 5 Noroeste 0 1012.3 -0.4 83
2019-06-17 01:00:00 20.3 4 Norte 9 Norte 0 1012.5 0.5 82
2019-06-17 00:00:00 20.7 6 Norte 9 Norte 0 1012.8 1 81
2019-06-16 23:00:00 20.7 4 Este 10 Nordeste 0 1012.7 1.2 77
2019-06-16 22:00:00 20.7 6 Este 11 Este 0 1012 0.5 79
2019-06-16 21:00:00 21 8 Este 14 Este 0 1011.8 0.3 80
2019-06-16 20:00:00 21.8 8 Nordeste 21 Nordeste 0 1011.5 0.2 74
2019-06-16 19:00:00 22 9 Nordeste 20 Nordeste 0 1011.5 0 72
2019-06-16 18:00:00 22.1 12 Nordeste 22 Nordeste 0 1011.5 0 71
2019-06-16 17:00:00 22.3 15 Nordeste 24 Nordeste 0 1011.3 -0.6 70
2019-06-16 16:00:00 22.8 14 Este 25 Nordeste 0 1011.5 -0.2 64
2019-06-16 15:00:00 22.7 16 Nordeste 24 Este 0 1011.5 -0.1 66
2019-06-16 14:00:00 22.6 12 Nordeste 22 Este 0 1011.9 0.7 60
2019-06-16 13:00:00 22 12 Nordeste 21 Este 0 1011.7 0.7 72
2019-06-16 12:00:00 22 13 Este 17 Este 0 1011.6 0.6 73
2019-06-16 11:00:00 21.6 14 Este 21 Este 0 1011.2 0.7 75
2019-06-16 10:00:00 22 10 Este 16 Este 0 1011 1 71
2019-06-16 09:00:00 20.9 6 Este 10 Norte 0 1011 1.3 71
2019-06-16 08:00:00 18.4 3 Sudoeste 9 Sudoeste 0 1010.5 0.7 75
2019-06-16 07:00:00 16.8 5 Oeste 8 Sudoeste 0 1010 0 77
2019-06-16 06:00:00 17 2 Noroeste 7 Sudoeste 0 1009.7 -0.6 80
2019-06-16 05:00:00 17.6 3 Oeste 6 Noroeste 0 1009.8 -1.2 79
2019-06-16 04:00:00 18 3 Sudoeste 5 Noroeste 0 1010 -1.7 74
2019-06-16 03:00:00 18.7 3 Nordeste 6 Sudoeste 0 1010.3 -1.3 71
2019-06-16 02:00:00 19.8 3 Nordeste 11 Este 0 1011 -0.2 67
2019-06-16 01:00:00 19.9 7 Este 11 Sudeste 0 1011.7 1.1 69
2019-06-16 00:00:00 20 5 Sudeste 8 Sur 0 1011.6 1.2 68
2019-06-15 23:00:00 20.4 4 Sudeste 13 Sudeste 0 1011.2 1 67
2019-06-15 22:00:00 21.3 8 Sudeste 16 Sur 0 1010.6 0.3 63
2019-06-15 21:00:00 24.1 6 Oeste 16 Oeste 0 1010.4 -0.1 25
2019-06-15 20:00:00 24.7 7 Oeste 20 Oeste 0 1010.2 -0.6 29
2019-06-15 19:00:00 25.3 9 Oeste 21 Noroeste 0 1010.3 -0.9 31
2019-06-15 18:00:00 25.7 9 Noroeste 24 Noroeste 0 1010.5 -1.1 32
2019-06-15 17:00:00 26 10 Noroeste 24 Noroeste 0 1010.8 -1.5 31
2019-06-15 16:00:00 25.5 12 Norte 23 Noroeste 0 1011.2 -1.4 32
2019-06-15 15:00:00 25.7 10 Noroeste 24 Oeste 0 1011.6 -1.1 32
2019-06-15 14:00:00 25 8 Noroeste 24 Noroeste 0 1012.3 -0.3 34
2019-06-15 13:00:00 24.2 10 Oeste 22 Noroeste 0 1012.6 -0.1 37
2019-06-15 12:00:00 23.6 11 Noroeste 25 Noroeste 0 1012.7 0.2 36
2019-06-15 11:00:00 23.2 11 Oeste 31 Sudoeste 0 1012.6 0.6 38
2019-06-15 10:00:00 21.2 20 Oeste 31 Oeste 0 1012.7 0.6 44
2019-06-15 09:00:00 19.7 18 Sudoeste 30 Sudoeste 0 1012.5 0.9 56
2019-06-15 08:00:00 18.1 14 Oeste 30 Sudoeste 0 1012 0.3 66
2019-06-15 07:00:00 16.9 17 Sudoeste 28 Sudoeste 0 1012.1 0.3 76
2019-06-15 06:00:00 17 15 Oeste 27 Oeste 0 1011.6 -0.4 76
2019-06-15 05:00:00 17.3 16 Oeste 28 Oeste 0 1011.7 0 74
2019-06-15 04:00:00 17.5 18 Oeste 33 Oeste 0 1011.8 -0.3 68
2019-06-15 03:00:00 17.8 18 Oeste 33 Oeste 0 1012 0 65
2019-06-15 02:00:00 18.1 23 Sudoeste 37 Sudoeste 0 1011.7 -0.1 64
2019-06-15 01:00:00 18.4 22 Sudoeste 40 Oeste 0 1012.1 0.7 63
2019-06-15 00:00:00 18.5 19 Oeste 35 Oeste 0 1012 1.4 61
2019-06-14 23:00:00 18.6 17 Sudoeste 33 Sudoeste 0 1011.8 1.5 61
2019-06-14 22:00:00 18.9 16 Sudoeste 38 Oeste 0 1011.4 1.4 63
2019-06-14 21:00:00 19.8 20 Oeste 39 Oeste 0 1010.6 -0.1 60
2019-06-14 20:00:00 20.7 19 Oeste 40 Oeste 0 1010.3 -0.5 52
2019-06-14 19:00:00 21.3 15 Oeste 41 Oeste 0 1010 -0.9 51
2019-06-14 18:00:00 22.1 14 Oeste 40 Oeste 0 1010.7 -0.6 50
2019-06-14 17:00:00 22.3 12 Oeste 35 Oeste 0 1010.8 -0.4 53
2019-06-14 16:00:00 22.9 11 Oeste 35 Oeste 0 1010.9 -0.4 52
2019-06-14 15:00:00 22.5 15 Oeste 33 Oeste 0 1011.3 0.3 55
2019-06-14 14:00:00 22.2 14 Noroeste 33 Oeste 0 1011.2 0.5 58
2019-06-14 13:00:00 21.9 11 Oeste 28 Oeste 0 1011.3 1.2 61
2019-06-14 12:00:00 21.3 8 Oeste 26 Noroeste 0 1011 2 64
2019-06-14 11:00:00 20.3 10 Oeste 25 Oeste 0 1010.7 2 71
2019-06-14 10:00:00 20 7 Oeste 26 Oeste 0 1010.1 2.7 77
2019-06-14 09:00:00 19.3 15 Oeste 29 Oeste 0 1009 2.3 80
2019-06-14 08:00:00 18.7 13 Oeste 27 Oeste 0 1008.7 2.3 80
2019-06-14 07:00:00 19.1 12 Oeste 30 Oeste 0 1007.4 1.2 90
2019-06-14 06:00:00 19.2 18 Sudoeste 30 Oeste 0 1006.7 0.4 87
2019-06-14 05:00:00 19.6 12 Oeste 23 Oeste 0 1006.4 -0.2 91
2019-06-14 04:00:00 19.6 9 Noroeste 15 Oeste 0 1006.2 -0.2 88
2019-06-14 03:00:00 19.9 10 Noroeste 18 Oeste 0 1006.3 -0.7 85
2019-06-14 02:00:00 19.9 9 Oeste 17 Sudoeste 0.2 1006.6 0.4 85
2019-06-14 01:00:00 20.2 8 Noroeste 15 Oeste 1.2 1006.4 1.1 90
2019-06-14 00:00:00 20 4 Norte 19 Sudoeste 9.2 1007 3.1 90
2019-06-13 23:00:00 20.8 7 Norte 12 Norte 0 1006.2 2.9 82
2019-06-13 22:00:00 20.7 8 Noroeste 12 Este 0 1005.3 2 83
2019-06-13 21:00:00 20.8 9 Este 18 Este 0 1003.9 1 82
2019-06-13 20:00:00 21.1 12 Este 20 Nordeste 0 1003.3 0.3 81
2019-06-13 19:00:00 21.8 12 Este 18 Nordeste 0 1003.3 0.4 77
2019-06-13 18:00:00 21.7 12 Este 22 Este 0 1002.9 -0.7 79
2019-06-13 17:00:00 22.7 14 Nordeste 28 Nordeste 0 1003 -0.7 75
2019-06-13 16:00:00 22.1 21 Nordeste 31 Norte 0 1002.9 -0.8 78
2019-06-13 15:00:00 22.8 20 Nordeste 30 Nordeste 0 1003.6 -0.5 74
2019-06-13 14:00:00 23.2 19 Nordeste 27 Nordeste 0 1003.7 -0.3 74
2019-06-13 13:00:00 22.7 19 Nordeste 28 Nordeste 0 1003.7 -0.4 74
2019-06-13 12:00:00 21.4 16 Nordeste 26 Este 0 1004.1 0.3 80
2019-06-13 11:00:00 21.2 17 Nordeste 25 Nordeste 0 1004 0.1 83
2019-06-13 10:00:00 20.8 17 Nordeste 27 Nordeste 0 1004.1 0.5 86
2019-06-13 09:00:00 20.4 17 Nordeste 26 Nordeste 0 1003.8 0.2 87
2019-06-13 08:00:00 20.1 16 Nordeste 27 Este 0 1003.9 0.5 88
2019-06-13 07:00:00 19.9 15 Nordeste 23 Nordeste 0 1003.6 -0.2 87
2019-06-13 06:00:00 19.9 16 Nordeste 24 Nordeste 0 1003.6 -0.6 88
2019-06-13 05:00:00 20 14 Nordeste 21 Nordeste 0 1003.4 -1 87
2019-06-13 04:00:00 20 12 Nordeste 19 Nordeste 0 1003.8 -1.2 86
2019-06-13 03:00:00 20 9 Nordeste 17 Nordeste 0 1004.2 -0.9 86
2019-06-13 02:00:00 20 11 Este 15 Este 0 1004.4 -0.8 85
2019-06-13 01:00:00 20 9 Este 17 Este 0 1005 0.2 86
2019-06-13 00:00:00 20.2 10 Este 19 Este 0 1005.1 0.5 83
2019-06-12 23:00:00 20.3 14 Este 21 Este 0 1005.2 1 82
2019-06-12 22:00:00 20.3 15 Este 21 Este 0 1004.8 0.6 83
2019-06-12 21:00:00 20.5 14 Este 23 Este 0 1004.6 0 81
2019-06-12 20:00:00 21 18 Este 25 Este 0 1004.2 -0.7 78
2019-06-12 19:00:00 21.5 17 Este 26 Este 0 1004.2 -1 78
2019-06-12 18:00:00 22 19 Este 28 Este 0 1004.6 -1.1 74
2019-06-12 17:00:00 22 20 Nordeste 32 Nordeste 0 1004.9 -1.2 74
2019-06-12 16:00:00 22 22 Nordeste 30 Nordeste 0 1005.2 -0.8 76
2019-06-12 15:00:00 22.6 17 Este 27 Nordeste 0 1005.7 -0.3 71
2019-06-12 14:00:00 23 17 Este 29 Nordeste 0 1006.1 0.1 66
2019-06-12 13:00:00 22.6 15 Este 26 Nordeste 0 1006 0 69
2019-06-12 12:00:00 22.1 11 Este 21 Este 0 1006 0 69
2019-06-12 11:00:00 22.4 9 Este 19 Este 0 1006 0.5 67
2019-06-12 10:00:00 21.3 9 Este 15 Este 0 1006 1.2 74
2019-06-12 09:00:00 20.1 7 Este 16 Este 0 1006 1.2 76
2019-06-12 08:00:00 19.5 7 Nordeste 13 Nordeste 0 1005.5 1 79
2019-06-12 07:00:00 18.3 8 Norte 19 Noroeste 0 1004.8 0.1 73
2019-06-12 06:00:00 18.4 10 Norte 17 Oeste 0 1004.8 0.1 69
2019-06-12 05:00:00 19.2 6 Oeste 17 Sudoeste 0 1004.5 0.6 66
2019-06-12 04:00:00 19.8 5 Norte 18 Oeste 0 1004.7 0.4 62
2019-06-12 03:00:00 21.1 17 Norte 26 Norte 0 1004.7 0.6 59
2019-06-12 02:00:00 21.4 9 Oeste 29 Sudoeste 0 1003.9 0.1 52
2019-06-12 01:00:00 22.3 17 Oeste 37 Oeste 0 1004.3 0.8 46
2019-06-12 00:00:00 22.4 21 Oeste 41 Oeste 0 1004.1 1 47
2019-06-11 23:00:00 22.1 25 Oeste 47 Oeste 0 1003.8 0.9 50
2019-06-11 22:00:00 21.6 28 Oeste 49 Oeste 0 1003.5 0.7 55
2019-06-11 21:00:00 22.4 29 Oeste 47 Oeste 0 1003.1 0.2 52
2019-06-11 20:00:00 23.4 28 Oeste 54 Oeste 0 1002.9 0 47
2019-06-11 19:00:00 25 24 Oeste 47 Oeste 0 1002.8 -0.6 43
2019-06-11 18:00:00 25.6 18 Oeste 54 Oeste 0 1002.9 -1.1 40
2019-06-11 17:00:00 25.7 19 Oeste 53 Oeste 0 1002.9 -1.6 40
2019-06-11 16:00:00 26.4 19 Oeste 47 Oeste 0 1003.4 -1.2 35
2019-06-11 15:00:00 26.2 14 Oeste 36 Oeste 0 1004 -1.1 36
2019-06-11 14:00:00 26.2 12 Oeste 42 Oeste 0 1004.5 -0.8 31
2019-06-11 13:00:00 26 21 Oeste 48 Oeste 0 1004.6 -0.7 34
2019-06-11 12:00:00 24.9 13 Oeste 35 Sudoeste 0 1005.1 -0.4 38
2019-06-11 11:00:00 24.7 10 Noroeste 23 Oeste 0 1005.3 0 43
2019-06-11 10:00:00 23.6 9 Noroeste 15 Norte 0 1005.3 0.3 47
2019-06-11 09:00:00 21.4 4 Noroeste 17 Oeste 0 1005.5 0.4 60
2019-06-11 08:00:00 19.6 4 Oeste 21 Oeste 0 1005.3 -0.1 60
2019-06-11 07:00:00 18.1 6 Noroeste 17 Oeste 0 1005 -0.9 73
2019-06-11 06:00:00 19 6 Noroeste 19 Sudoeste 0 1005.1 -1.3 53
2019-06-11 05:00:00 20.6 14 Oeste 24 Sudoeste 0 1005.4 -1.8 42
2019-06-11 04:00:00 20.4 15 Oeste 36 Oeste 0 1005.9 -1.9 47
2019-06-11 03:00:00 20.1 22 Oeste 37 Sudoeste 0 1006.4 -1.4 62
2019-06-11 02:00:00 20.7 13 Oeste 24 Oeste 0 1007.2 -0.9 50
2019-06-11 01:00:00 20.9 14 Oeste 31 Oeste 0 1007.8 0.2 49
2019-06-11 00:00:00 20.7 22 Sudoeste 42 Oeste 0 1007.8 0.8 52
2019-06-10 23:00:00 20.4 20 Oeste 40 Oeste 0 1008.1 1 60
2019-06-10 22:00:00 20.7 22 Oeste 40 Oeste 0 1007.6 0.2 62
2019-06-10 21:00:00 21.5 14 Oeste 36 Oeste 0 1007 -0.7 56
2019-06-10 20:00:00 22.6 14 Oeste 38 Oeste 0 1007.1 -1.2 52
2019-06-10 19:00:00 23.8 12 Oeste 47 Oeste 0 1007.4 -1.1 47
2019-06-10 18:00:00 24.3 26 Oeste 51 Oeste 0 1007.7 -1.4 45
2019-06-10 17:00:00 24.6 17 Oeste 54 Oeste 0 1008.3 -1.5 45
2019-06-10 16:00:00 24.5 18 Oeste 51 Oeste 0 1008.5 -2 46
2019-06-10 15:00:00 24.1 22 Oeste 48 Oeste 0 1009.1 -1.3 49
2019-06-10 14:00:00 23.1 23 Oeste 47 Oeste 0 1009.8 -0.1 53
2019-06-10 13:00:00 23.1 24 Oeste 46 Oeste 0 1010.5 1 55
2019-06-10 12:00:00 22.9 19 Oeste 45 Oeste 0 1010.4 0.7 50
2019-06-10 11:00:00 22.8 20 Oeste 49 Oeste 0 1009.9 0 49
2019-06-10 10:00:00 22.1 20 Oeste 47 Oeste 0 1009.5 0.1 50
2019-06-10 09:00:00 21.9 16 Oeste 38 Noroeste 0 1009.7 0.6 51
2019-06-10 08:00:00 21.9 12 Oeste 31 Oeste 0 1009.9 0.4 42
2019-06-10 07:00:00 21 23 Oeste 44 Oeste 0 1009.4 -0.4 44
2019-06-10 06:00:00 20.7 21 Oeste 39 Oeste 0 1009.1 -1 43
2019-06-10 05:00:00 20.3 26 Oeste 42 Oeste 0 1009.5 -1.1 50
2019-06-10 04:00:00 19.5 25 Oeste 43 Oeste 0 1009.8 -0.7 58
2019-06-10 03:00:00 19.8 21 Oeste 42 Oeste 0 1010.1 -0.4 59
2019-06-10 02:00:00 20.4 21 Oeste 45 Oeste 0 1010.6 -0.1 53
2019-06-10 01:00:00 21.2 22 Oeste 41 Oeste 0 1010.5 0.3 45
2019-06-10 00:00:00 21.5 17 Oeste 41 Oeste 0 1010.5 0.5 48
2019-06-09 23:00:00 21.8 24 Oeste 42 Oeste 0 1010.7 0.8 46
2019-06-09 22:00:00 22.2 17 Oeste 38 Oeste 0 1010.2 0.3 40
2019-06-09 21:00:00 22.9 22 Oeste 45 Oeste 0 1010 -0.4 40
2019-06-09 20:00:00 23.4 15 Oeste 36 Oeste 0 1009.9 -0.8 44
2019-06-09 19:00:00 23.4 10 Oeste 34 Oeste 0 1009.9 -1.2 54
2019-06-09 18:00:00 23.5 12 Oeste 30 Oeste 0 1010.4 -0.7 60
2019-06-09 17:00:00 24 11 Oeste 32 Oeste 0 1010.7 -0.9 62
2019-06-09 16:00:00 24.3 11 Oeste 34 Noroeste 0 1011.1 -0.6 62
2019-06-09 15:00:00 23.8 12 Noroeste 31 Oeste 0 1011.1 -0.9 63
2019-06-09 14:00:00 23.5 12 Oeste 30 Oeste 0 1011.6 -0.2 61
2019-06-09 13:00:00 24 11 Oeste 26 Sudoeste 0 1011.7 -0.1 60
2019-06-09 12:00:00 23.3 12 Oeste 25 Oeste 0 1012 0.3 64
2019-06-09 11:00:00 22.2 12 Noroeste 25 Oeste 0 1011.8 0.4 68
2019-06-09 10:00:00 22 10 Oeste 23 Oeste 0 1011.8 0.8 68
2019-06-09 09:00:00 20.4 18 Sudoeste 24 Sudoeste 0 1011.7 0.7 78
2019-06-09 08:00:00 19 10 Oeste 17 Oeste 0 1011.4 0.1 84
2019-06-09 07:00:00 18.4 4 Oeste 9 Oeste 0 1011 -0.4 87
2019-06-09 06:00:00 18.5 3 Oeste 8 Noroeste 0 1011 -0.9 87
2019-06-09 05:00:00 18.3 6 Noroeste 8 Norte 0 1011.3 -0.9 82
2019-06-09 04:00:00 19.1 5 Sudoeste 6 Sudoeste 0 1011.4 -0.9 82
2019-06-09 03:00:00 19.4 5 Sudoeste 7 Sudoeste 0 1011.9 -0.5 80
2019-06-09 02:00:00 19.9 4 Nordeste 7 Este 0 1012.2 0 85
2019-06-09 01:00:00 20.1 2 Sudeste 9 Sudeste 0 1012.3 0.8 84
2019-06-09 00:00:00 20 7 Sudeste 10 Este 0 1012.4 1.3 86
2019-06-08 23:00:00 20.4 6 Sudeste 16 Sudeste 0 1012.2 1.5 81
2019-06-08 22:00:00 20.4 8 Este 18 Este 0 1011.5 0.9 81
2019-06-08 21:00:00 20.6 8 Este 14 Este 0 1011.1 0.4 79
2019-06-08 20:00:00 21 9 Este 18 Nordeste 0 1010.7 -0.1 77
2019-06-08 19:00:00 21.8 12 Este 22 Este 0 1010.6 -0.4 73
2019-06-08 18:00:00 22.3 12 Este 23 Nordeste 0 1010.7 -0.8 74
2019-06-08 17:00:00 22.1 15 Nordeste 26 Nordeste 0 1010.8 -0.9 74
2019-06-08 16:00:00 22.1 19 Nordeste 30 Nordeste 0 1011 -0.8 75
2019-06-08 15:00:00 22.4 19 Nordeste 28 Nordeste 0 1011.5 -0.3 72
2019-06-08 14:00:00 22.8 18 Nordeste 25 Nordeste 0 1011.7 -0.2 62
2019-06-08 13:00:00 23.5 13 Este 20 Este 0 1011.8 0.3 52
2019-06-08 12:00:00 22.9 12 Este 21 Este 0 1011.8 0.6 58
2019-06-08 11:00:00 23.1 11 Este 21 Este 0 1011.9 1 55
2019-06-08 10:00:00 23 13 Este 18 Este 0 1011.5 1 54
2019-06-08 09:00:00 21.7 7 Este 10 Este 0 1011.2 0.8 65
2019-06-08 08:00:00 17.5 9 Norte 10 Noroeste 0 1010.9 0.4 75
2019-06-08 07:00:00 17.4 3 Noroeste 5 Oeste 0 1010.5 -0.5 83
2019-06-08 06:00:00 17.6 2 Oeste 6 Oeste 0 1010.4 -0.7 81
2019-06-08 05:00:00 18 5 Sudoeste 10 Sudoeste 0 1010.5 -0.8 77
2019-06-08 04:00:00 18.9 5 Norte 8 Sudeste 0 1011 0 81
2019-06-08 03:00:00 19.2 6 Este 12 Sudeste 0 1011.1 0.1 83
2019-06-08 02:00:00 19.6 5 Este 13 Sudeste 0 1011.3 0.8 80
2019-06-08 01:00:00 20.2 9 Sudeste 16 Sur 0 1011 1.1 79
2019-06-08 00:00:00 21.2 9 Sudeste 20 Sur 0 1011 1.5 71
2019-06-07 23:00:00 22.1 11 Oeste 21 Sudoeste 0 1010.5 1.2 47
2019-06-07 22:00:00 21.6 11 Oeste 22 Oeste 0 1009.9 0.6 54
2019-06-07 21:00:00 22.1 12 Oeste 29 Oeste 0 1009.5 0.2 54
2019-06-07 20:00:00 22.8 10 Oeste 31 Oeste 0 1009.3 -0.4 54
2019-06-07 19:00:00 23.5 9 Oeste 27 Oeste 0 1009.3 -0.7 50
2019-06-07 18:00:00 24.5 13 Oeste 32 Oeste 0 1009.3 -0.8 47
2019-06-07 17:00:00 24.9 13 Oeste 34 Oeste 0 1009.7 -0.7 47
2019-06-07 16:00:00 24.8 12 Oeste 32 Oeste 0 1010 -0.5 48
2019-06-07 15:00:00 24.5 14 Oeste 36 Oeste 0 1010.1 -0.4 49
2019-06-07 14:00:00 24 13 Oeste 39 Oeste 0 1010.4 0.3 51
2019-06-07 13:00:00 23.4 15 Oeste 39 Oeste 0 1010.5 0.5 53
2019-06-07 12:00:00 22.8 13 Oeste 40 Oeste 0 1010.5 1.1 53
2019-06-07 11:00:00 22 22 Oeste 42 Oeste 0 1010.1 1.3 57
2019-06-07 10:00:00 20.3 23 Oeste 42 Oeste 0 1010 1.9 67
2019-06-07 09:00:00 19.5 20 Oeste 40 Oeste 0 1009.4 1.5 69
2019-06-07 08:00:00 18.4 19 Oeste 32 Sudoeste 0 1008.8 1.1 73
2019-06-07 07:00:00 17.7 18 Sudoeste 33 Sudoeste 0 1008.1 0.8 76
2019-06-07 06:00:00 17.9 21 Oeste 32 Oeste 0 1007.9 0.9 76
2019-06-07 05:00:00 18.1 20 Oeste 35 Sudoeste 0 1007.7 0.4 74
2019-06-07 04:00:00 18.6 19 Oeste 33 Oeste 0 1007.3 -0.2 64
2019-06-07 03:00:00 19.3 15 Oeste 33 Oeste 0 1007 -0.6 55
2019-06-07 02:00:00 20 16 Oeste 32 Oeste 0 1007.3 0 47
2019-06-07 01:00:00 20.2 17 Oeste 27 Sudoeste 0 1007.5 1.1 47
2019-06-07 00:00:00 19.9 12 Oeste 27 Oeste 0 1007.6 2 61
2019-06-06 23:00:00 20.7 13 Oeste 23 Oeste 0 1007.3 2.3 48
2019-06-06 22:00:00 21.9 8 Oeste 19 Oeste 0 1006.4 1.3 33
2019-06-06 21:00:00 22.8 10 Oeste 23 Oeste 0 1005.6 0.3 30
2019-06-06 20:00:00 23.5 6 Oeste 24 Oeste 0 1005 -0.7 32
2019-06-06 19:00:00 24.4 10 Oeste 28 Oeste 0 1005.1 -1.1 32
2019-06-06 18:00:00 24 11 Noroeste 27 Oeste 0 1005.3 -1.2 36
2019-06-06 17:00:00 24.2 12 Noroeste 33 Oeste 0 1005.7 -1.4 35
2019-06-06 16:00:00 24.9 12 Noroeste 31 Noroeste 0 1006.2 -1.4 34
2019-06-06 15:00:00 24.6 16 Noroeste 30 Oeste 0 1006.5 -1.3 33
2019-06-06 14:00:00 25.4 9 Noroeste 22 Norte 0 1007.1 -0.7 29
2019-06-06 13:00:00 24.4 10 Noroeste 23 Noroeste 0 1007.6 -0.5 29
2019-06-06 12:00:00 23.8 8 Noroeste 25 Noroeste 0 1007.8 -0.2 30
2019-06-06 11:00:00 23.1 10 Noroeste 22 Noroeste 0 1007.8 0 31
2019-06-06 10:00:00 22.4 9 Oeste 23 Sudoeste 0 1008.1 0.5 34
2019-06-06 09:00:00 21.1 15 Oeste 30 Sudoeste 0 1008 0.4 39
2019-06-06 08:00:00 19.7 17 Sudoeste 28 Oeste 0 1007.8 0.2 41
2019-06-06 07:00:00 18.8 18 Oeste 27 Oeste 0 1007.6 -0.3 45
2019-06-06 06:00:00 18.7 15 Oeste 26 Sudoeste 0 1007.6 -0.5 47
2019-06-06 05:00:00 18.8 18 Oeste 29 Oeste 0 1007.6 -0.6 52
2019-06-06 04:00:00 18.9 18 Oeste 36 Oeste 0 1007.9 -0.6 52
2019-06-06 03:00:00 19.5 19 Oeste 40 Oeste 0 1008.1 -0.2 55
2019-06-06 02:00:00 20.1 26 Oeste 42 Oeste 0 1008.2 0.3 49
2019-06-06 01:00:00 20.4 25 Oeste 45 Oeste 0 1008.5 1.1 47
2019-06-06 00:00:00 20.6 27 Oeste 48 Oeste 0 1008.3 1.1 45
2019-06-05 23:00:00 20.5 26 Oeste 48 Oeste 0 1007.9 1 47
2019-06-05 22:00:00 20.5 28 Oeste 44 Oeste 0 1007.4 0.6 48
2019-06-05 21:00:00 20.9 26 Oeste 44 Oeste 0 1007.2 -0.1 47
2019-06-05 20:00:00 21.7 20 Oeste 44 Oeste 0 1006.9 -0.9 42
2019-06-05 19:00:00 22.8 21 Oeste 45 Oeste 0 1006.8 -1.1 42
2019-06-05 18:00:00 22.8 16 Oeste 44 Oeste 0 1007.3 -0.9 40
2019-06-05 17:00:00 23.4 15 Oeste 41 Oeste 0 1007.8 -1.1 37
2019-06-05 16:00:00 22.3 14 Oeste 40 Oeste 0 1007.9 -1.2 40
2019-06-05 15:00:00 22.8 16 Oeste 43 Oeste 0 1008.2 -0.5 42
2019-06-05 14:00:00 23 21 Oeste 43 Oeste 0 1008.9 0.3 41
2019-06-05 13:00:00 22.3 18 Oeste 46 Oeste 0 1009.1 0.8 44
2019-06-05 12:00:00 22.6 27 Oeste 51 Oeste 0 1008.7 1.1 50
2019-06-05 11:00:00 21.5 22 Oeste 46 Oeste 0 1008.6 1.6 53
2019-06-05 10:00:00 21.3 19 Oeste 48 Oeste 0 1008.3 1.9 59
2019-06-05 09:00:00 20.9 24 Oeste 46 Oeste 0 1007.6 1.5 67
2019-06-05 08:00:00 19.9 22 Oeste 48 Oeste 0 1007 1.4 69
2019-06-05 07:00:00 20 23 Oeste 53 Oeste 0 1006.4 0.9 72
2019-06-05 06:00:00 19.9 23 Oeste 50 Oeste 0 1006.1 0.3 75
2019-06-05 05:00:00 20.3 27 Oeste 54 Oeste 0 1005.6 -0.5 72
2019-06-05 04:00:00 20.3 21 Oeste 44 Oeste 0 1005.5 -0.6 74
2019-06-05 03:00:00 20.4 28 Oeste 51 Oeste 0 1005.8 0.5 72
2019-06-05 02:00:00 21.3 27 Oeste 44 Oeste 0 1006.1 1.4 68
2019-06-05 01:00:00 22.6 21 Oeste 50 Oeste 0 1006.1 2 60
2019-06-05 00:00:00 23.8 28 Oeste 44 Oeste 0 1005.3 1.1 54
2019-06-04 23:00:00 24.8 23 Oeste 38 Oeste 0 1004.7 0.3 46
2019-06-04 22:00:00 25.7 14 Oeste 26 Oeste 0 1004.1 0 36
2019-06-04 21:00:00 25 5 Noroeste 20 Sudeste 0 1004.2 -0.7 47
2019-06-04 20:00:00 24.7 12 Sudeste 21 Sudeste 0 1004.4 -0.6 62
2019-06-04 19:00:00 28.6 8 Noroeste 22 Noroeste 0 1004.1 -1.6 22
2019-06-04 18:00:00 27.9 7 Este 21 Noroeste 0 1004.9 -1.6 51
2019-06-04 17:00:00 29 10 Noroeste 23 Noroeste 0 1005 -2.4 25
2019-06-04 16:00:00 30.3 9 Oeste 25 Oeste 0 1005.7 -2 23
2019-06-04 15:00:00 28.6 9 Oeste 27 Noroeste 0 1006.5 -1.5 34
2019-06-04 14:00:00 27.8 13 Oeste 28 Oeste 0 1007.4 -0.5 42
2019-06-04 13:00:00 24.3 8 Este 18 Este 0 1007.7 -0.3 63
2019-06-04 12:00:00 24 10 Norte 22 Noroeste 0 1008 0.3 62
2019-06-04 11:00:00 22.1 13 Noroeste 21 Norte 0 1007.9 0.5 73
2019-06-04 10:00:00 20.5 7 Oeste 18 Oeste 0 1008 0.4 79
2019-06-04 09:00:00 19 8 Sudoeste 14 Sudoeste 0 1007.7 0.4 85
2019-06-04 08:00:00 18.2 8 Sudoeste 12 Sudoeste 0 1007.4 0 87
2019-06-04 07:00:00 17.8 9 Oeste 22 Sudoeste 0 1007.6 -0.3 90
2019-06-04 06:00:00 17.8 10 Oeste 20 Sudoeste 0 1007.3 -0.9 91
2019-06-04 05:00:00 17.6 7 Oeste 17 Oeste 0 1007.4 -1.4 91
2019-06-04 04:00:00 16.8 8 Noroeste 13 Noroeste 0 1007.9 -1.3 91
2019-06-04 03:00:00 17.6 3 Oeste 8 Noroeste 0 1008.2 -1.3 81
2019-06-04 02:00:00 17.9 4 Norte 6 Sudoeste 0 1008.8 -0.7 86
2019-06-04 01:00:00 18.4 2 Noroeste 4 Noroeste 0 1009.2 0.1 83
2019-06-04 00:00:00 19.2 2 Sur 5 Sur 0 1009.5 0.3 84
2019-06-03 23:00:00 19.4 2 Sudeste 6 Sudeste 0 1009.5 0.2 84
2019-06-03 22:00:00 19.8 3 Este 7 Este 0 1009.1 -0.4 82
2019-06-03 21:00:00 20.4 5 Este 10 Este 0 1009.2 -0.6 78
2019-06-03 20:00:00 21.1 8 Este 15 Este 0 1009.3 -0.7 75
2019-06-03 19:00:00 22.2 8 Nordeste 16 Este 0 1009.5 -1 68
2019-06-03 18:00:00 22.2 11 Este 19 Este 0 1009.8 -1.2 71
2019-06-03 17:00:00 22.3 11 Este 18 Este 0 1010 -1.5 70
2019-06-03 16:00:00 22.4 11 Nordeste 24 Este 0 1010.5 -1.4 70
2019-06-03 15:00:00 21.6 14 Este 22 Este 0 1011 -0.8 72
2019-06-03 14:00:00 21.7 14 Este 22 Este 0 1011.5 -0.4 71
2019-06-03 13:00:00 21.4 14 Este 20 Este 0 1011.9 0.2 72
2019-06-03 12:00:00 20.8 13 Este 18 Este 0 1011.8 0.3 72
2019-06-03 11:00:00 20.7 11 Este 21 Este 0 1011.9 0.6 72
2019-06-03 10:00:00 20.4 16 Este 23 Nordeste 0 1011.7 0.6 74
2019-06-03 09:00:00 20 13 Este 19 Este 0 1011.5 0.4 76
2019-06-03 08:00:00 18.2 9 Este 17 Este 0 1011.3 0.4 82
2019-06-03 07:00:00 18.1 12 Este 19 Este 0 1011.1 -0.4 83
2019-06-03 06:00:00 18.2 9 Este 15 Este 0 1011.1 -0.9 85
2019-06-03 05:00:00 18.1 10 Este 14 Este 0 1010.9 -1.6 86
2019-06-03 04:00:00 17.7 3 Sudeste 9 Este 0 1011.5 -1.6 85
2019-06-03 03:00:00 18.1 6 Este 9 Este 0 1012 -1 85
2019-06-03 02:00:00 18.5 7 Este 10 Este 0 1012.5 0.1 84
2019-06-03 01:00:00 18.9 7 Este 12 Este 0 1013.1 1.4 82
2019-06-03 00:00:00 19.1 7 Sudeste 13 Este 0 1013 1.7 82
2019-06-02 23:00:00 19.2 5 Este 11 Este 0 1012.4 1.3 83
2019-06-02 22:00:00 19.5 6 Sudeste 12 Este 0 1011.7 0.6 81
2019-06-02 21:00:00 19.9 8 Este 17 Este 0 1011.3 -0.2 78
2019-06-02 20:00:00 21 9 Este 18 Sudeste 0 1011.1 -0.6 72
2019-06-02 19:00:00 21.9 10 Este 21 Este 0 1011.1 -1.1 68
2019-06-02 18:00:00 22 11 Este 21 Este 0 1011.5 -0.9 68
2019-06-02 17:00:00 22 12 Este 23 Nordeste 0 1011.7 -1.3 67
2019-06-02 16:00:00 22.6 10 Este 22 Este 0 1012.2 -1.2 64
2019-06-02 15:00:00 21.9 12 Nordeste 24 Este 0 1012.4 -1 64
2019-06-02 14:00:00 21.8 14 Nordeste 26 Este 0 1013 -0.1 63
2019-06-02 13:00:00 22 12 Este 23 Nordeste 0 1013.4 0.3 62
2019-06-02 12:00:00 21.8 14 Este 24 Sudeste 0 1013.4 0.6 62
2019-06-02 11:00:00 21 15 Nordeste 21 Nordeste 0 1013.1 0.4 64
2019-06-02 10:00:00 20.8 12 Este 18 Este 0 1013.1 0.5 67
2019-06-02 09:00:00 20.5 11 Este 17 Este 0 1012.8 0.3 69
2019-06-02 08:00:00 19.1 9 Este 12 Este 0 1012.7 0.1 78
2019-06-02 07:00:00 18 6 Este 13 Este 0 1012.6 -0.1 82
2019-06-02 06:00:00 18.1 7 Este 10 Este 0 1012.5 -0.6 83
2019-06-02 05:00:00 18.4 6 Este 14 Este 0 1012.6 -0.8 79
2019-06-02 04:00:00 18.5 8 Este 12 Nordeste 0 1012.7 -1 81
2019-06-02 03:00:00 18.7 8 Este 12 Nordeste 0 1013.1 -0.5 84
2019-06-02 02:00:00 18.1 7 Sudeste 9 Sudeste 0 1013.4 0.1 86
2019-06-02 01:00:00 18.1 5 Este 10 Este 0 1013.7 0.9 85
2019-06-02 00:00:00 18.4 5 Sudeste 14 Sudeste 0 1013.6 1.1 83
2019-06-01 23:00:00 18.8 10 Sudeste 17 Sudeste 0 1013.3 1.1 83
2019-06-01 22:00:00 19 12 Sudeste 20 Este 0 1012.8 0.6 82
2019-06-01 21:00:00 19.6 15 Sudeste 23 Este 0 1012.5 0 79
2019-06-01 20:00:00 20.2 18 Este 27 Sudeste 0 1012.2 -0.7 77
2019-06-01 19:00:00 21.1 21 Este 31 Este 0 1012.2 -1.1 72
2019-06-01 18:00:00 21.1 20 Este 29 Este 0 1012.5 -1.2 73
2019-06-01 17:00:00 21.4 23 Este 30 Este 0 1012.9 -1.4 71
2019-06-01 16:00:00 21.7 19 Este 31 Este 0 1013.3 -1.1 69
2019-06-01 15:00:00 22.7 19 Este 30 Este 0 1013.7 -0.8 63
2019-06-01 14:00:00 22.3 23 Este 30 Este 0 1014.3 0 63
2019-06-01 13:00:00 21.5 22 Este 27 Este 0 1014.4 0.2 69
2019-06-01 12:00:00 21 17 Este 27 Este 0 1014.5 0.6 70
2019-06-01 11:00:00 20.7 18 Este 27 Este 0 1014.3 0.6 71
2019-06-01 10:00:00 19.6 18 Este 26 Este 0 1014.2 0.8 76
2019-06-01 09:00:00 19.3 15 Este 24 Este 0 1013.9 0.5 73
2019-06-01 08:00:00 19 15 Este 26 Este 0 1013.7 0.3 77
2019-06-01 07:00:00 18.8 17 Este 27 Este 0 1013.4 -0.3 76
2019-06-01 06:00:00 18.6 15 Este 27 Este 0 1013.4 -0.6 79
2019-06-01 05:00:00 18.6 17 Este 26 Este 0 1013.4 -1 81
2019-06-01 04:00:00 18.5 15 Este 23 Este 0 1013.7 -1 82
2019-06-01 03:00:00 18.4 14 Este 21 Este 0 1014 -0.8 84
2019-06-01 02:00:00 18.4 16 Este 23 Este 0 1014.4 -0.1 81
2019-06-01 01:00:00 18.6 16 Este 28 Este 0 1014.7 0.7 82
2019-06-01 00:00:00 18.8 17 Este 26 Este 0 1014.8 1.2 80
2019-05-31 23:00:00 18.9 15 Este 29 Este 0 1014.5 1.1 78
2019-05-31 22:00:00 19.2 18 Este 28 Este 0 1014 0.5 76
2019-05-31 21:00:00 19.7 23 Este 35 Este 0 1013.6 -0.3 72
2019-05-31 20:00:00 20.5 22 Este 40 Este 0 1013.4 -0.7 66
2019-05-31 19:00:00 21.4 24 Este 35 Este 0 1013.5 -0.9 63
2019-05-31 18:00:00 21.9 26 Este 37 Este 0 1013.9 -0.8 61
2019-05-31 17:00:00 22.1 26 Este 36 Este 0 1014.1 -1 62
2019-05-31 16:00:00 22.7 24 Este 36 Este 0 1014.4 -1 58
2019-05-31 15:00:00 22.4 27 Este 37 Nordeste 0 1014.7 -0.6 59
2019-05-31 14:00:00 22.6 24 Este 38 Este 0 1015.1 -0.1 62
2019-05-31 13:00:00 22 27 Este 37 Este 0 1015.4 0.3 65
2019-05-31 12:00:00 21.8 27 Este 36 Este 0 1015.3 0.2 65
2019-05-31 11:00:00 20.9 24 Este 35 Este 0 1015.2 0.4 68
2019-05-31 10:00:00 20.5 24 Este 35 Este 0 1015.1 0.5 70
2019-05-31 09:00:00 20.1 21 Este 34 Este 0 1015.1 0.6 71
2019-05-31 08:00:00 19.4 24 Este 32 Este 0 1014.8 0.2 72
2019-05-31 07:00:00 18.8 17 Este 27 Este 0 1014.6 -0.3 73
2019-05-31 06:00:00 18.8 18 Este 27 Este 0 1014.5 -0.7 72
2019-05-31 05:00:00 18.8 18 Este 27 Este 0 1014.6 -1.3 72
2019-05-31 04:00:00 18.9 18 Este 34 Este 0 1014.9 -1.5 72
2019-05-31 03:00:00 19 19 Este 31 Este 0 1015.2 -1.7 74
2019-05-31 02:00:00 19 20 Este 31 Este 0 1015.9 -0.8 72
2019-05-31 01:00:00 19 16 Este 27 Este 0 1016.4 0.3 75
2019-05-31 00:00:00 19 16 Este 27 Este 0 1016.9 1.1 75
2019-05-30 23:00:00 19.2 18 Este 30 Este 0 1016.7 1.1 75
2019-05-30 22:00:00 19.4 17 Este 32 Este 0 1016.1 0.5 72
2019-05-30 21:00:00 19.8 20 Este 32 Este 0 1015.8 -0.1 68
2019-05-30 20:00:00 20.4 23 Este 36 Este 0 1015.6 -0.5 66
2019-05-30 19:00:00 21.2 24 Este 38 Este 0 1015.6 -0.6 63
2019-05-30 18:00:00 22 24 Este 38 Este 0 1015.9 -0.8 59
2019-05-30 17:00:00 22.3 25 Este 36 Nordeste 0 1016.1 -0.8 59
2019-05-30 16:00:00 21.7 24 Nordeste 39 Este 0 1016.2 -0.7 64
2019-05-30 15:00:00 22.1 24 Este 37 Nordeste 0 1016.7 -0.3 61
2019-05-30 14:00:00 21.6 25 Este 37 Este 0 1016.9 -0.2 65
2019-05-30 13:00:00 22.1 24 Este 36 Este 0 1016.9 0 62
2019-05-30 12:00:00 21.8 24 Este 34 Este 0 1017 0.4 62
2019-05-30 11:00:00 20.7 23 Este 35 Este 0 1017.1 1 67
2019-05-30 10:00:00 21.2 20 Este 31 Este 0 1016.9 1.2 65
2019-05-30 09:00:00 19.7 20 Este 32 Este 0 1016.6 1.3 73
2019-05-30 08:00:00 19.3 21 Este 31 Este 0 1016.1 0.9 76
2019-05-30 07:00:00 18.8 20 Este 36 Este 0 1015.7 0.5 78
2019-05-30 06:00:00 18.7 19 Este 32 Este 0 1015.3 0.4 81
2019-05-30 05:00:00 18.8 21 Este 30 Este 0 1015.2 0 82
2019-05-30 04:00:00 19 18 Este 34 Nordeste 0 1015.2 -0.1 82
2019-05-30 03:00:00 19.4 22 Este 33 Este 0 1014.9 -0.5 78
2019-05-30 02:00:00 19.5 17 Este 28 Este 0 1015.2 0.6 80
2019-05-30 01:00:00 19.6 14 Este 23 Este 0 1015.3 1.8 80
2019-05-30 00:00:00 19.6 16 Este 25 Este 0 1015.4 2.4 81
2019-05-29 23:00:00 19.7 18 Este 27 Este 0 1014.6 2.1 80
2019-05-29 22:00:00 19.9 16 Este 25 Sudeste 0 1013.5 1.1 80
2019-05-29 21:00:00 20.3 14 Este 24 Este 0 1013 0.6 78
2019-05-29 20:00:00 21 17 Este 27 Este 0 1012.5 0.1 75
2019-05-29 19:00:00 21.8 21 Este 30 Este 0 1012.4 0 69
2019-05-29 18:00:00 22.6 20 Este 32 Este 0 1012.4 -0.2 66
2019-05-29 17:00:00 22.6 22 Este 32 Este 0 1012.4 -0.3 63
2019-05-29 16:00:00 23.1 24 Este 33 Este 0 1012.4 -0.5 61
2019-05-29 15:00:00 23.2 23 Nordeste 34 Este 0 1012.6 -0.2 57
2019-05-29 14:00:00 23.2 22 Este 32 Este 0 1012.7 0.2 62
2019-05-29 13:00:00 22.4 22 Este 32 Este 0 1012.9 0.6 63
2019-05-29 12:00:00 22.6 21 Este 33 Este 0 1012.8 1.1 66
2019-05-29 11:00:00 22.4 22 Este 31 Nordeste 0 1012.5 1.7 67
2019-05-29 10:00:00 22 19 Este 28 Nordeste 0 1012.3 2.2 71
2019-05-29 09:00:00 21 19 Este 26 Este 0 1011.7 2.2 79
2019-05-29 08:00:00 20.7 13 Este 21 Este 0 1010.8 1.5 81
2019-05-29 07:00:00 20 15 Este 22 Este 0 1010.1 1.3 84
2019-05-29 06:00:00 20.1 12 Este 23 Este 0 1009.5 1 85
2019-05-29 05:00:00 20.2 15 Este 22 Este 0 1009.3 1 86
2019-05-29 04:00:00 20.5 13 Este 21 Este 0 1008.8 0.9 87
2019-05-29 03:00:00 20.7 10 Nordeste 17 Nordeste 0 1008.5 0.8 87
2019-05-29 02:00:00 20.8 5 Este 10 Nordeste 0 1008.3 1 78
2019-05-29 01:00:00 21.3 0 Calma 5 Este 0 1007.9 1.2 74
2019-05-29 00:00:00 21.6 3 Sudeste 6 Sudeste 0 1007.7 1.3 72
2019-05-28 23:00:00 22.1 3 Este 6 Sudeste 0 1007.3 1.2 77
2019-05-28 22:00:00 22.4 4 Este 10 Este 0 1006.7 1 74
2019-05-28 21:00:00 23.2 8 Este 11 Este 0 1006.4 0.8 70
2019-05-28 20:00:00 23.9 8 Este 13 Este 0 1006.1 0.6 64
2019-05-28 19:00:00 25.2 9 Este 14 Este 0 1005.7 0 59
2019-05-28 18:00:00 25.7 9 Este 16 Este 0 1005.6 -0.2 56
2019-05-28 17:00:00 26 9 Este 18 Este 0 1005.5 -0.1 53
2019-05-28 16:00:00 26.7 11 Este 19 Este 0 1005.7 0.2 51
2019-05-28 15:00:00 26.1 13 Norte 28 Nordeste 0 1005.8 0.4 50
2019-05-28 14:00:00 26 17 Nordeste 30 Nordeste 0 1005.6 0.7 53
2019-05-28 13:00:00 28.8 7 Nordeste 27 Nordeste 0 1005.5 0.6 36
2019-05-28 12:00:00 28.1 21 Norte 28 Nordeste 0 1005.4 0.6 32
2019-05-28 11:00:00 30.9 8 Nordeste 14 Nordeste 0 1004.9 0.5 28
2019-05-28 10:00:00 29.5 8 Este 10 Sudeste 0 1004.9 0.7 28
2019-05-28 09:00:00 26.6 4 Este 6 Sudeste 0 1004.8 0.7 30
2019-05-28 08:00:00 22.7 4 Oeste 10 Noroeste 0 1004.4 0.2 37
2019-05-28 07:00:00 19.8 5 Oeste 8 Sudoeste 0 1004.2 -0.3 49
2019-05-28 06:00:00 19.3 5 Sudoeste 6 Oeste 0 1004.1 -0.9 52
2019-05-28 05:00:00 19.1 5 Noroeste 8 Noroeste 0 1004.2 -1 65
2019-05-28 04:00:00 19.6 2 Norte 5 Sudeste 0 1004.5 -1 67
2019-05-28 03:00:00 19.9 4 Noroeste 9 Noroeste 0 1005 -0.6 65
2019-05-28 02:00:00 19.8 4 Noroeste 10 Norte 0 1005.2 -0.3 70
2019-05-28 01:00:00 20.4 3 Noroeste 6 Noroeste 0 1005.5 0.2 77
2019-05-28 00:00:00 20.8 2 Sudeste 6 Sudeste 0 1005.6 0.5 77
2019-05-27 23:00:00 21.1 0 Calma 6 Este 0 1005.5 0.4 77
2019-05-27 22:00:00 21.4 5 Este 7 Este 0 1005.3 0.3 75
2019-05-27 21:00:00 22 7 Este 14 Este 0 1005.1 -0.3 67
2019-05-27 20:00:00 22.9 9 Este 14 Nordeste 0 1005.1 -0.5 66
2019-05-27 19:00:00 24.3 7 Este 13 Nordeste 0 1005 -1.1 60
2019-05-27 18:00:00 23.8 9 Este 18 Este 0 1005.4 -0.9 64
2019-05-27 17:00:00 24.8 10 Este 21 Nordeste 0 1005.6 -1.2 61
2019-05-27 16:00:00 25 13 Nordeste 23 Norte 0 1006.1 -1 56
2019-05-27 15:00:00 25.1 11 Nordeste 17 Nordeste 0 1006.3 -1 58
2019-05-27 14:00:00 24.9 12 Nordeste 17 Nordeste 0 1006.8 -0.8 54
2019-05-27 13:00:00 24.3 12 Nordeste 16 Nordeste 0 1007.1 -0.7 49
2019-05-27 12:00:00 23.7 9 Este 14 Este 0 1007.3 -0.2 54
2019-05-27 11:00:00 22.9 8 Nordeste 12 Nordeste 0 1007.6 0.1 64
2019-05-27 10:00:00 22.2 8 Nordeste 12 Nordeste 0 1007.8 0.6 67
2019-05-27 09:00:00 20.3 4 Norte 9 Norte 0 1007.5 0.7 72
2019-05-27 08:00:00 17.2 5 Norte 9 Oeste 0 1007.5 0.5 75
2019-05-27 07:00:00 16.7 8 Sudoeste 9 Sudoeste 0 1007.2 -0.2 80
2019-05-27 06:00:00 16.6 3 Oeste 8 Noroeste 0 1006.8 -1.2 80
2019-05-27 05:00:00 17.1 4 Oeste 8 Oeste 0 1007 -1.6 82
2019-05-27 04:00:00 17.9 3 Noroeste 9 Sudeste 0 1007.4 -1.8 82
2019-05-27 03:00:00 18.6 5 Sudeste 14 Sudeste 0 1008 -1.4 84
2019-05-27 02:00:00 18.8 8 Sudeste 13 Sudeste 0 1008.6 -0.6 84
2019-05-27 01:00:00 19.1 8 Sudeste 15 Este 0 1009.2 0.6 83
2019-05-27 00:00:00 19.3 10 Este 16 Sudeste 0 1009.4 0.7 80
2019-05-26 23:00:00 19.5 10 Sudeste 19 Sudeste 0 1009.2 0.6 77
2019-05-26 22:00:00 19.7 10 Sudeste 16 Sudeste 0 1008.6 -0.1 73
2019-05-26 21:00:00 20.2 9 Sudeste 14 Este 0 1008.7 -0.2 71
2019-05-26 20:00:00 20.7 11 Este 18 Este 0 1008.6 -0.9 68
2019-05-26 19:00:00 21.4 11 Este 19 Nordeste 0 1008.7 -1 66
2019-05-26 18:00:00 21.9 13 Nordeste 22 Nordeste 0 1008.9 -1.4 61
2019-05-26 17:00:00 21.9 14 Este 21 Nordeste 0 1009.5 -1.4 62
2019-05-26 16:00:00 22.5 15 Nordeste 26 Nordeste 0 1009.7 -1.4 54
2019-05-26 15:00:00 22.8 16 Nordeste 26 Nordeste 0 1010.3 -1 51
2019-05-26 14:00:00 22.3 17 Nordeste 25 Nordeste 0 1010.9 -0.5 56
2019-05-26 13:00:00 23 15 Este 26 Este 0 1011.1 -0.2 51
2019-05-26 12:00:00 23.5 15 Sudeste 25 Este 0 1011.3 -0.1 42
2019-05-26 11:00:00 23 14 Sudeste 22 Este 0 1011.4 0.3 46
2019-05-26 10:00:00 22.3 13 Sudeste 24 Sudeste 0 1011.3 0.6 48
2019-05-26 09:00:00 21.5 12 Sudeste 19 Este 0 1011.4 1 49
2019-05-26 08:00:00 18.9 6 Este 9 Este 0 1011.1 0.3 55
2019-05-26 07:00:00 16.6 0 Calma 8 Noroeste 0 1010.7 -0.4 67
2019-05-26 06:00:00 17.3 3 Norte 8 Este 0 1010.4 -1 64
2019-05-26 05:00:00 18.5 5 Nordeste 10 Este 0 1010.8 -1.1 59
2019-05-26 04:00:00 18.3 5 Sudeste 20 Sur 0 1011.1 -1.1 62
2019-05-26 03:00:00 18.4 10 Sudeste 21 Sudeste 0 1011.4 -0.8 69
2019-05-26 02:00:00 18.7 14 Sudeste 23 Sudeste 0 1011.9 -0.1 78
2019-05-26 01:00:00 18.8 13 Sudeste 21 Sudeste 0 1012.2 0.8 78
2019-05-26 00:00:00 18.9 11 Sudeste 21 Sudeste 0 1012.2 1.3 79
2019-05-25 23:00:00 19.1 13 Sudeste 20 Este 0 1012 1.6 77
2019-05-25 22:00:00 19.4 13 Este 22 Este 0 1011.4 1.5 77
2019-05-25 21:00:00 19.9 9 Sudeste 19 Este 0 1010.9 0.8 73
2019-05-25 20:00:00 20.7 11 Este 21 Este 0 1010.4 0.4 67
2019-05-25 19:00:00 21.6 11 Este 21 Este 0 1009.9 -0.1 63
2019-05-25 18:00:00 22.5 13 Este 23 Este 0 1010.1 0.1 58
2019-05-25 17:00:00 22.4 14 Este 23 Este 0 1010 -0.1 62
2019-05-25 16:00:00 22.1 13 Nordeste 27 Este 0 1010 -0.1 62
2019-05-25 15:00:00 22.3 16 Este 27 Nordeste 0 1010 0.2 63
2019-05-25 14:00:00 22.1 17 Nordeste 27 Nordeste 0 1010.1 0.7 64
2019-05-25 13:00:00 21.2 19 Este 28 Este 0 1010.1 1.2 73
2019-05-25 12:00:00 20.6 22 Este 32 Nordeste 0 1009.8 1.5 73
2019-05-25 11:00:00 20.3 22 Nordeste 30 Nordeste 0 1009.4 1.6 76
2019-05-25 10:00:00 19.8 17 Nordeste 27 Nordeste 0 1008.9 1.5 80
2019-05-25 09:00:00 19.7 16 Nordeste 24 Nordeste 0 1008.3 1.4 81
2019-05-25 08:00:00 19.4 6 Norte 18 Nordeste 0 1007.8 1 84
2019-05-25 07:00:00 19.1 9 Norte 17 Nordeste 0 1007.4 0.8 85
2019-05-25 06:00:00 18.5 4 Oeste 9 Sudoeste 0 1006.9 -0.1 80
2019-05-25 05:00:00 18.1 4 Oeste 9 Norte 0 1006.8 -0.3 77
2019-05-25 04:00:00 18.2 4 Oeste 8 Sudoeste 0 1006.6 -0.7 75
2019-05-25 03:00:00 18.9 3 Sudoeste 7 Norte 0 1007 -0.3 72
2019-05-25 02:00:00 19 5 Noroeste 9 Norte 0 1007.1 0.5 66
2019-05-25 01:00:00 19.7 5 Norte 10 Norte 0 1007.3 1.4 63
2019-05-25 00:00:00 20.2 8 Norte 14 Noroeste 0 1007.3 2.3 61